sensor_id;sensor_type;location;lat;lon;timestamp;temperature;humidity
26270;DHT22;15937;50.612;6.656;2023-09-08T00:02:54;18.50;1.00
26270;DHT22;15937;50.612;6.656;2023-09-08T00:06:55;18.70;99.90
26270;DHT22;15937;50.612;6.656;2023-09-08T00:10:57;18.80;99.90
26270;DHT22;15937;50.612;6.656;2023-09-08T00:14:59;18.50;99.90
26270;DHT22;15937;50.612;6.656;2023-09-08T00:19:01;18.50;99.90
26270;DHT22;15937;50.612;6.656;2023-09-08T00:23:02;18.50;99.90
26270;DHT22;15937;50.612;6.656;2023-09-08T00:27:05;18.50;99.90
26270;DHT22;15937;50.612;6.656;2023-09-08T00:31:07;18.60;99.90
26270;DHT22;15937;50.612;6.656;2023-09-08T00:35:10;18.70;99.90
26270;DHT22;15937;50.612;6.656;2023-09-08T00:39:12;18.70;99.90
26270;DHT22;15937;50.612;6.656;2023-09-08T00:43:14;18.70;99.90
26270;DHT22;15937;50.612;6.656;2023-09-08T00:47:15;19.00;99.90
26270;DHT22;15937;50.612;6.656;2023-09-08T00:51:17;18.70;99.90
26270;DHT22;15937;50.612;6.656;2023-09-08T00:55:19;18.50;99.90
26270;DHT22;15937;50.612;6.656;2023-09-08T00:59:21;17.90;99.90
26270;DHT22;15937;50.612;6.656;2023-09-08T01:03:24;17.70;70.60
26270;DHT22;15937;50.612;6.656;2023-09-08T01:07:26;17.90;99.90
26270;DHT22;15937;50.612;6.656;2023-09-08T01:11:30;18.40;1.00
26270;DHT22;15937;50.612;6.656;2023-09-08T01:15:32;18.40;23.80
26270;DHT22;15937;50.612;6.656;2023-09-08T01:19:34;18.10;99.90
26270;DHT22;15937;50.612;6.656;2023-09-08T01:27:39;18.30;99.90
26270;DHT22;15937;50.612;6.656;2023-09-08T01:31:42;18.00;99.90
26270;DHT22;15937;50.612;6.656;2023-09-08T01:35:44;18.40;99.90
26270;DHT22;15937;50.612;6.656;2023-09-08T01:39:46;18.30;99.90
26270;DHT22;15937;50.612;6.656;2023-09-08T01:43:48;18.60;99.90
26270;DHT22;15937;50.612;6.656;2023-09-08T01:47:49;18.10;99.90
26270;DHT22;15937;50.612;6.656;2023-09-08T01:51:51;18.70;99.90
26270;DHT22;15937;50.612;6.656;2023-09-08T01:55:53;19.00;99.90
26270;DHT22;15937;50.612;6.656;2023-09-08T01:59:55;19.00;99.90
26270;DHT22;15937;50.612;6.656;2023-09-08T02:03:56;19.10;99.90
26270;DHT22;15937;50.612;6.656;2023-09-08T02:07:58;19.20;99.90
26270;DHT22;15937;50.612;6.656;2023-09-08T02:12:00;19.30;99.90
26270;DHT22;15937;50.612;6.656;2023-09-08T02:16:02;19.40;99.90
26270;DHT22;15937;50.612;6.656;2023-09-08T02:20:04;19.50;99.90
26270;DHT22;15937;50.612;6.656;2023-09-08T02:24:06;19.60;99.90
26270;DHT22;15937;50.612;6.656;2023-09-08T02:28:08;19.70;99.90
26270;DHT22;15937;50.612;6.656;2023-09-08T02:32:09;19.70;99.90
26270;DHT22;15937;50.612;6.656;2023-09-08T02:36:11;19.80;99.90
26270;DHT22;15937;50.612;6.656;2023-09-08T02:40:13;19.80;99.90
26270;DHT22;15937;50.612;6.656;2023-09-08T02:44:14;19.70;99.90
26270;DHT22;15937;50.612;6.656;2023-09-08T02:48:16;19.60;99.90
26270;DHT22;15937;50.612;6.656;2023-09-08T02:52:18;19.70;99.90
26270;DHT22;15937;50.612;6.656;2023-09-08T02:56:21;19.40;99.90
26270;DHT22;15937;50.612;6.656;2023-09-08T03:00:23;19.10;99.90
26270;DHT22;15937;50.612;6.656;2023-09-08T03:04:24;18.70;99.90
26270;DHT22;15937;50.612;6.656;2023-09-08T03:08:26;18.60;99.90
26270;DHT22;15937;50.612;6.656;2023-09-08T03:12:28;18.50;99.90
26270;DHT22;15937;50.612;6.656;2023-09-08T03:16:30;18.50;99.90
26270;DHT22;15937;50.612;6.656;2023-09-08T03:20:32;18.50;99.90
26270;DHT22;15937;50.612;6.656;2023-09-08T03:24:36;18.40;99.90
26270;DHT22;15937;50.612;6.656;2023-09-08T03:28:41;18.10;99.90
26270;DHT22;15937;50.612;6.656;2023-09-08T03:32:43;18.10;99.90
26270;DHT22;15937;50.612;6.656;2023-09-08T03:36:45;18.00;99.90
26270;DHT22;15937;50.612;6.656;2023-09-08T03:40:47;18.10;99.90
26270;DHT22;15937;50.612;6.656;2023-09-08T03:44:51;17.90;99.90
26270;DHT22;15937;50.612;6.656;2023-09-08T03:48:53;18.40;99.90
26270;DHT22;15937;50.612;6.656;2023-09-08T03:53:02;18.30;99.90
26270;DHT22;15937;50.612;6.656;2023-09-08T03:57:07;18.50;99.90
26270;DHT22;15937;50.612;6.656;2023-09-08T04:01:09;18.60;99.90
26270;DHT22;15937;50.612;6.656;2023-09-08T04:05:11;18.50;99.90
26270;DHT22;15937;50.612;6.656;2023-09-08T04:09:12;18.10;99.90
26270;DHT22;15937;50.612;6.656;2023-09-08T04:13:14;17.80;99.90
26270;DHT22;15937;50.612;6.656;2023-09-08T04:17:16;17.60;99.90
26270;DHT22;15937;50.612;6.656;2023-09-08T04:21:17;17.70;99.90
26270;DHT22;15937;50.612;6.656;2023-09-08T04:25:19;17.70;99.90
26270;DHT22;15937;50.612;6.656;2023-09-08T04:29:21;17.70;99.90
26270;DHT22;15937;50.612;6.656;2023-09-08T04:33:23;17.50;99.90
26270;DHT22;15937;50.612;6.656;2023-09-08T04:37:25;17.60;99.90
26270;DHT22;15937;50.612;6.656;2023-09-08T04:41:27;17.80;99.90
26270;DHT22;15937;50.612;6.656;2023-09-08T04:45:28;17.80;99.90
26270;DHT22;15937;50.612;6.656;2023-09-08T04:49:30;17.90;99.90
26270;DHT22;15937;50.612;6.656;2023-09-08T04:53:32;17.90;99.90
26270;DHT22;15937;50.612;6.656;2023-09-08T04:57:34;17.80;99.90
26270;DHT22;15937;50.612;6.656;2023-09-08T05:01:36;17.70;99.90
26270;DHT22;15937;50.612;6.656;2023-09-08T05:05:38;17.50;99.90
26270;DHT22;15937;50.612;6.656;2023-09-08T05:09:40;17.60;99.90
26270;DHT22;15937;50.612;6.656;2023-09-08T05:13:42;17.60;99.90
26270;DHT22;15937;50.612;6.656;2023-09-08T05:17:44;17.70;99.90
26270;DHT22;15937;50.612;6.656;2023-09-08T05:21:46;17.60;99.90
26270;DHT22;15937;50.612;6.656;2023-09-08T05:25:48;17.70;99.90
26270;DHT22;15937;50.612;6.656;2023-09-08T05:29:49;17.80;99.90
26270;DHT22;15937;50.612;6.656;2023-09-08T05:33:51;17.80;99.90
26270;DHT22;15937;50.612;6.656;2023-09-08T05:37:53;17.80;99.90
26270;DHT22;15937;50.612;6.656;2023-09-08T05:41:54;17.90;99.90
26270;DHT22;15937;50.612;6.656;2023-09-08T05:45:56;18.00;99.90
26270;DHT22;15937;50.612;6.656;2023-09-08T05:49:58;18.00;99.90
26270;DHT22;15937;50.612;6.656;2023-09-08T05:54:00;18.20;99.90
26270;DHT22;15937;50.612;6.656;2023-09-08T05:58:03;18.30;99.90
26270;DHT22;15937;50.612;6.656;2023-09-08T06:02:05;18.50;99.90
26270;DHT22;15937;50.612;6.656;2023-09-08T06:06:07;18.50;99.90
26270;DHT22;15937;50.612;6.656;2023-09-08T06:10:09;18.70;99.90
26270;DHT22;15937;50.612;6.656;2023-09-08T06:14:10;18.70;99.90
26270;DHT22;15937;50.612;6.656;2023-09-08T06:18:13;18.80;99.90
26270;DHT22;15937;50.612;6.656;2023-09-08T06:22:15;18.90;99.90
26270;DHT22;15937;50.612;6.656;2023-09-08T06:26:17;19.10;99.90
26270;DHT22;15937;50.612;6.656;2023-09-08T06:30:19;19.20;99.90
26270;DHT22;15937;50.612;6.656;2023-09-08T06:34:20;19.40;99.90
26270;DHT22;15937;50.612;6.656;2023-09-08T06:38:24;19.60;99.90
26270;DHT22;15937;50.612;6.656;2023-09-08T06:42:26;19.70;99.90
26270;DHT22;15937;50.612;6.656;2023-09-08T06:46:28;20.00;99.90
26270;DHT22;15937;50.612;6.656;2023-09-08T06:50:30;20.20;99.90
26270;DHT22;15937;50.612;6.656;2023-09-08T06:54:31;20.50;99.90
26270;DHT22;15937;50.612;6.656;2023-09-08T06:58:34;20.70;99.90
26270;DHT22;15937;50.612;6.656;2023-09-08T07:02:36;20.70;99.90
26270;DHT22;15937;50.612;6.656;2023-09-08T07:06:38;21.00;99.90
26270;DHT22;15937;50.612;6.656;2023-09-08T07:10:43;21.20;99.90
26270;DHT22;15937;50.612;6.656;2023-09-08T07:14:45;21.40;99.90
26270;DHT22;15937;50.612;6.656;2023-09-08T07:18:49;21.60;99.90
26270;DHT22;15937;50.612;6.656;2023-09-08T07:22:51;22.00;99.90
26270;DHT22;15937;50.612;6.656;2023-09-08T07:26:53;22.20;99.90
26270;DHT22;15937;50.612;6.656;2023-09-08T07:31:00;22.30;99.90
26270;DHT22;15937;50.612;6.656;2023-09-08T07:35:02;22.50;99.90
26270;DHT22;15937;50.612;6.656;2023-09-08T07:39:04;22.90;99.90
26270;DHT22;15937;50.612;6.656;2023-09-08T07:43:06;23.30;99.90
26270;DHT22;15937;50.612;6.656;2023-09-08T07:47:08;23.50;99.90
26270;DHT22;15937;50.612;6.656;2023-09-08T07:51:09;23.80;99.90
26270;DHT22;15937;50.612;6.656;2023-09-08T07:55:11;23.80;99.90
26270;DHT22;15937;50.612;6.656;2023-09-08T07:59:13;24.10;99.90
26270;DHT22;15937;50.612;6.656;2023-09-08T08:03:15;24.30;99.90
26270;DHT22;15937;50.612;6.656;2023-09-08T08:07:16;24.30;99.90
26270;DHT22;15937;50.612;6.656;2023-09-08T08:11:18;24.60;99.90
26270;DHT22;15937;50.612;6.656;2023-09-08T08:15:20;24.80;99.90
26270;DHT22;15937;50.612;6.656;2023-09-08T08:19:24;25.20;99.90
26270;DHT22;15937;50.612;6.656;2023-09-08T08:23:28;25.20;99.90
26270;DHT22;15937;50.612;6.656;2023-09-08T08:27:30;25.50;99.90
26270;DHT22;15937;50.612;6.656;2023-09-08T08:31:32;25.60;99.90
26270;DHT22;15937;50.612;6.656;2023-09-08T08:35:35;25.60;99.90
26270;DHT22;15937;50.612;6.656;2023-09-08T08:39:36;25.60;99.90
26270;DHT22;15937;50.612;6.656;2023-09-08T08:43:38;25.80;99.00
26270;DHT22;15937;50.612;6.656;2023-09-08T08:47:40;25.80;98.60
26270;DHT22;15937;50.612;6.656;2023-09-08T08:51:44;26.20;99.30
26270;DHT22;15937;50.612;6.656;2023-09-08T08:55:46;26.20;97.90
26270;DHT22;15937;50.612;6.656;2023-09-08T08:59:49;26.30;99.60
26270;DHT22;15937;50.612;6.656;2023-09-08T09:03:53;26.50;99.90
26270;DHT22;15937;50.612;6.656;2023-09-08T09:07:55;26.50;98.40
26270;DHT22;15937;50.612;6.656;2023-09-08T09:11:59;26.40;97.70
26270;DHT22;15937;50.612;6.656;2023-09-08T09:16:01;26.50;97.70
26270;DHT22;15937;50.612;6.656;2023-09-08T09:20:11;26.80;97.00
26270;DHT22;15937;50.612;6.656;2023-09-08T09:24:17;26.70;95.10
26270;DHT22;15937;50.612;6.656;2023-09-08T09:28:21;27.00;95.30
26270;DHT22;15937;50.612;6.656;2023-09-08T09:32:23;27.20;93.50
26270;DHT22;15937;50.612;6.656;2023-09-08T09:36:25;27.30;94.40
26270;DHT22;15937;50.612;6.656;2023-09-08T09:40:27;27.30;95.00
26270;DHT22;15937;50.612;6.656;2023-09-08T09:44:29;27.30;94.10
26270;DHT22;15937;50.612;6.656;2023-09-08T09:48:31;27.50;93.80
26270;DHT22;15937;50.612;6.656;2023-09-08T09:52:33;27.50;93.10
26270;DHT22;15937;50.612;6.656;2023-09-08T09:56:40;27.60;93.70
26270;DHT22;15937;50.612;6.656;2023-09-08T10:00:44;27.70;91.80
26270;DHT22;15937;50.612;6.656;2023-09-08T10:04:50;27.70;92.10
26270;DHT22;15937;50.612;6.656;2023-09-08T10:08:52;28.00;91.50
26270;DHT22;15937;50.612;6.656;2023-09-08T10:12:57;28.10;91.10
26270;DHT22;15937;50.612;6.656;2023-09-08T10:17:01;28.50;91.10
26270;DHT22;15937;50.612;6.656;2023-09-08T10:21:04;28.30;90.60
26270;DHT22;15937;50.612;6.656;2023-09-08T10:25:06;28.40;89.40
26270;DHT22;15937;50.612;6.656;2023-09-08T10:29:09;28.50;89.00
26270;DHT22;15937;50.612;6.656;2023-09-08T10:33:11;28.50;89.10
26270;DHT22;15937;50.612;6.656;2023-09-08T10:37:18;28.60;87.90
26270;DHT22;15937;50.612;6.656;2023-09-08T10:45:25;28.80;87.80
26270;DHT22;15937;50.612;6.656;2023-09-08T10:49:26;28.70;85.50
26270;DHT22;15937;50.612;6.656;2023-09-08T10:53:29;28.70;84.00
26270;DHT22;15937;50.612;6.656;2023-09-08T10:57:32;29.00;85.80
26270;DHT22;15937;50.612;6.656;2023-09-08T11:01:35;29.00;82.60
26270;DHT22;15937;50.612;6.656;2023-09-08T11:05:37;29.10;82.70
26270;DHT22;15937;50.612;6.656;2023-09-08T11:09:40;29.10;81.40
26270;DHT22;15937;50.612;6.656;2023-09-08T11:13:42;29.30;81.60
26270;DHT22;15937;50.612;6.656;2023-09-08T11:17:47;29.50;80.30
26270;DHT22;15937;50.612;6.656;2023-09-08T11:21:52;29.30;99.90
26270;DHT22;15937;50.612;6.656;2023-09-08T11:25:54;29.40;99.90
26270;DHT22;15937;50.612;6.656;2023-09-08T11:29:56;29.70;99.90
26270;DHT22;15937;50.612;6.656;2023-09-08T11:34:03;29.50;99.90
26270;DHT22;15937;50.612;6.656;2023-09-08T11:38:06;29.50;99.90
26270;DHT22;15937;50.612;6.656;2023-09-08T11:42:11;29.90;99.90
26270;DHT22;15937;50.612;6.656;2023-09-08T11:46:13;30.00;99.90
26270;DHT22;15937;50.612;6.656;2023-09-08T11:50:17;29.90;99.90
26270;DHT22;15937;50.612;6.656;2023-09-08T11:54:20;30.10;99.90
26270;DHT22;15937;50.612;6.656;2023-09-08T11:58:21;30.00;99.90
26270;DHT22;15937;50.612;6.656;2023-09-08T12:02:23;30.10;99.90
26270;DHT22;15937;50.612;6.656;2023-09-08T12:06:25;30.00;99.90
26270;DHT22;15937;50.612;6.656;2023-09-08T12:10:27;29.80;99.90
26270;DHT22;15937;50.612;6.656;2023-09-08T12:14:29;30.10;99.90
26270;DHT22;15937;50.612;6.656;2023-09-08T12:18:38;29.70;99.90
26270;DHT22;15937;50.612;6.656;2023-09-08T12:22:47;30.00;99.90
26270;DHT22;15937;50.612;6.656;2023-09-08T12:26:49;30.10;99.90
26270;DHT22;15937;50.612;6.656;2023-09-08T12:30:51;30.30;99.90
26270;DHT22;15937;50.612;6.656;2023-09-08T12:34:54;30.20;99.90
26270;DHT22;15937;50.612;6.656;2023-09-08T12:38:57;30.20;99.90
26270;DHT22;15937;50.612;6.656;2023-09-08T12:42:58;30.70;99.90
26270;DHT22;15937;50.612;6.656;2023-09-08T12:47:05;30.80;99.90
26270;DHT22;15937;50.612;6.656;2023-09-08T12:51:07;30.70;99.90
26270;DHT22;15937;50.612;6.656;2023-09-08T12:55:09;30.70;99.90
26270;DHT22;15937;50.612;6.656;2023-09-08T12:59:11;30.50;99.90
26270;DHT22;15937;50.612;6.656;2023-09-08T13:03:12;30.70;99.90
26270;DHT22;15937;50.612;6.656;2023-09-08T13:07:15;30.90;99.90
26270;DHT22;15937;50.612;6.656;2023-09-08T13:11:16;30.90;99.90
26270;DHT22;15937;50.612;6.656;2023-09-08T13:15:18;30.80;99.90
26270;DHT22;15937;50.612;6.656;2023-09-08T13:19:20;30.90;99.90
26270;DHT22;15937;50.612;6.656;2023-09-08T13:23:22;31.00;99.90
26270;DHT22;15937;50.612;6.656;2023-09-08T13:27:23;31.00;99.90
26270;DHT22;15937;50.612;6.656;2023-09-08T13:31:25;30.90;99.90
26270;DHT22;15937;50.612;6.656;2023-09-08T13:35:27;31.00;99.90
26270;DHT22;15937;50.612;6.656;2023-09-08T13:39:28;31.10;99.90
26270;DHT22;15937;50.612;6.656;2023-09-08T13:43:30;30.90;99.90
26270;DHT22;15937;50.612;6.656;2023-09-08T13:47:32;30.80;99.90
26270;DHT22;15937;50.612;6.656;2023-09-08T13:51:35;30.80;99.90
26270;DHT22;15937;50.612;6.656;2023-09-08T13:55:39;31.00;99.90
26270;DHT22;15937;50.612;6.656;2023-09-08T13:59:44;31.00;99.90
26270;DHT22;15937;50.612;6.656;2023-09-08T14:03:50;30.80;99.90
26270;DHT22;15937;50.612;6.656;2023-09-08T14:07:56;30.80;99.90
26270;DHT22;15937;50.612;6.656;2023-09-08T14:12:08;30.80;99.90
26270;DHT22;15937;50.612;6.656;2023-09-08T14:16:12;30.80;99.90
26270;DHT22;15937;50.612;6.656;2023-09-08T14:20:14;30.80;99.90
26270;DHT22;15937;50.612;6.656;2023-09-08T14:24:16;30.70;99.90
26270;DHT22;15937;50.612;6.656;2023-09-08T14:28:18;30.60;99.90
26270;DHT22;15937;50.612;6.656;2023-09-08T14:32:20;30.70;99.90
26270;DHT22;15937;50.612;6.656;2023-09-08T14:36:22;30.60;99.90
26270;DHT22;15937;50.612;6.656;2023-09-08T14:40:24;30.70;99.90
26270;DHT22;15937;50.612;6.656;2023-09-08T14:44:25;30.60;99.90
26270;DHT22;15937;50.612;6.656;2023-09-08T14:48:27;30.70;99.90
26270;DHT22;15937;50.612;6.656;2023-09-08T14:52:29;30.70;99.90
26270;DHT22;15937;50.612;6.656;2023-09-08T14:56:31;30.50;99.90
26270;DHT22;15937;50.612;6.656;2023-09-08T15:00:32;30.30;99.90
26270;DHT22;15937;50.612;6.656;2023-09-08T15:04:34;30.50;99.90
26270;DHT22;15937;50.612;6.656;2023-09-08T15:08:36;30.40;99.90
26270;DHT22;15937;50.612;6.656;2023-09-08T15:12:38;30.30;99.90
26270;DHT22;15937;50.612;6.656;2023-09-08T15:16:40;30.20;99.90
26270;DHT22;15937;50.612;6.656;2023-09-08T15:20:49;30.20;99.90
26270;DHT22;15937;50.612;6.656;2023-09-08T15:24:51;30.30;99.90
26270;DHT22;15937;50.612;6.656;2023-09-08T15:28:52;30.30;99.90
26270;DHT22;15937;50.612;6.656;2023-09-08T15:32:54;30.40;99.90
26270;DHT22;15937;50.612;6.656;2023-09-08T15:36:56;30.30;99.90
26270;DHT22;15937;50.612;6.656;2023-09-08T15:45:03;30.20;99.90
26270;DHT22;15937;50.612;6.656;2023-09-08T15:49:05;30.20;99.90
26270;DHT22;15937;50.612;6.656;2023-09-08T15:53:06;30.20;99.90
26270;DHT22;15937;50.612;6.656;2023-09-08T15:57:08;30.00;99.90
26270;DHT22;15937;50.612;6.656;2023-09-08T16:01:10;30.00;99.90
26270;DHT22;15937;50.612;6.656;2023-09-08T16:05:13;30.20;99.90
26270;DHT22;15937;50.612;6.656;2023-09-08T16:09:16;30.20;99.90
26270;DHT22;15937;50.612;6.656;2023-09-08T16:13:18;30.10;99.90
26270;DHT22;15937;50.612;6.656;2023-09-08T16:17:20;30.20;99.90
26270;DHT22;15937;50.612;6.656;2023-09-08T16:21:22;30.10;99.90
26270;DHT22;15937;50.612;6.656;2023-09-08T16:25:24;30.00;99.90
26270;DHT22;15937;50.612;6.656;2023-09-08T16:29:26;30.10;99.90
26270;DHT22;15937;50.612;6.656;2023-09-08T16:33:27;30.10;99.90
26270;DHT22;15937;50.612;6.656;2023-09-08T16:37:29;30.00;99.90
26270;DHT22;15937;50.612;6.656;2023-09-08T16:41:30;29.90;99.90
26270;DHT22;15937;50.612;6.656;2023-09-08T16:45:32;29.70;99.90
26270;DHT22;15937;50.612;6.656;2023-09-08T16:49:34;29.80;99.90
26270;DHT22;15937;50.612;6.656;2023-09-08T16:53:36;29.70;99.90
26270;DHT22;15937;50.612;6.656;2023-09-08T16:57:38;29.80;99.90
26270;DHT22;15937;50.612;6.656;2023-09-08T17:01:40;29.60;99.90
26270;DHT22;15937;50.612;6.656;2023-09-08T17:05:42;29.40;99.90
26270;DHT22;15937;50.612;6.656;2023-09-08T17:09:44;29.20;99.90
26270;DHT22;15937;50.612;6.656;2023-09-08T17:13:46;29.20;99.90
26270;DHT22;15937;50.612;6.656;2023-09-08T17:17:48;29.00;99.90
26270;DHT22;15937;50.612;6.656;2023-09-08T17:21:50;28.90;99.90
26270;DHT22;15937;50.612;6.656;2023-09-08T17:25:53;28.80;99.90
26270;DHT22;15937;50.612;6.656;2023-09-08T17:29:55;28.70;99.90
26270;DHT22;15937;50.612;6.656;2023-09-08T17:33:56;28.40;99.90
26270;DHT22;15937;50.612;6.656;2023-09-08T17:37:58;28.40;99.90
26270;DHT22;15937;50.612;6.656;2023-09-08T17:42:00;28.40;99.90
26270;DHT22;15937;50.612;6.656;2023-09-08T17:46:01;28.20;99.90
26270;DHT22;15937;50.612;6.656;2023-09-08T17:50:05;28.10;99.90
26270;DHT22;15937;50.612;6.656;2023-09-08T17:54:07;28.00;99.90
26270;DHT22;15937;50.612;6.656;2023-09-08T17:58:09;27.90;99.90
26270;DHT22;15937;50.612;6.656;2023-09-08T18:02:11;27.70;99.90
26270;DHT22;15937;50.612;6.656;2023-09-08T18:06:13;27.60;99.90
26270;DHT22;15937;50.612;6.656;2023-09-08T18:10:15;27.40;99.90
26270;DHT22;15937;50.612;6.656;2023-09-08T18:14:17;27.30;99.90
26270;DHT22;15937;50.612;6.656;2023-09-08T18:18:19;27.20;99.90
26270;DHT22;15937;50.612;6.656;2023-09-08T18:22:21;27.00;99.90
26270;DHT22;15937;50.612;6.656;2023-09-08T18:26:23;26.90;99.90
26270;DHT22;15937;50.612;6.656;2023-09-08T18:30:25;26.70;99.90
26270;DHT22;15937;50.612;6.656;2023-09-08T18:34:27;26.60;99.90
26270;DHT22;15937;50.612;6.656;2023-09-08T18:38:29;26.40;99.90
26270;DHT22;15937;50.612;6.656;2023-09-08T18:42:33;26.40;99.90
26270;DHT22;15937;50.612;6.656;2023-09-08T18:46:34;26.40;99.90
26270;DHT22;15937;50.612;6.656;2023-09-08T18:50:36;26.10;99.90
26270;DHT22;15937;50.612;6.656;2023-09-08T18:54:38;26.10;1.00
26270;DHT22;15937;50.612;6.656;2023-09-08T18:58:41;26.00;1.00
26270;DHT22;15937;50.612;6.656;2023-09-08T19:02:42;26.00;1.00
26270;DHT22;15937;50.612;6.656;2023-09-08T19:06:45;25.70;1.00
26270;DHT22;15937;50.612;6.656;2023-09-08T19:10:46;25.70;1.00
26270;DHT22;15937;50.612;6.656;2023-09-08T19:14:48;25.60;1.00
26270;DHT22;15937;50.612;6.656;2023-09-08T19:18:50;25.50;1.00
26270;DHT22;15937;50.612;6.656;2023-09-08T19:22:51;25.40;1.00
26270;DHT22;15937;50.612;6.656;2023-09-08T19:26:53;25.30;1.00
26270;DHT22;15937;50.612;6.656;2023-09-08T19:30:55;25.20;1.00
26270;DHT22;15937;50.612;6.656;2023-09-08T19:34:57;25.10;1.00
26270;DHT22;15937;50.612;6.656;2023-09-08T19:38:59;24.90;1.00
26270;DHT22;15937;50.612;6.656;2023-09-08T19:43:01;24.40;1.00
26270;DHT22;15937;50.612;6.656;2023-09-08T19:47:03;23.80;90.00
26270;DHT22;15937;50.612;6.656;2023-09-08T19:51:05;24.00;99.90
26270;DHT22;15937;50.612;6.656;2023-09-08T19:55:07;24.00;99.90
26270;DHT22;15937;50.612;6.656;2023-09-08T19:59:10;23.80;99.90
26270;DHT22;15937;50.612;6.656;2023-09-08T20:03:12;23.60;99.90
26270;DHT22;15937;50.612;6.656;2023-09-08T20:07:14;23.30;1.00
26270;DHT22;15937;50.612;6.656;2023-09-08T20:11:18;23.40;99.90
26270;DHT22;15937;50.612;6.656;2023-09-08T20:15:20;23.30;99.90
26270;DHT22;15937;50.612;6.656;2023-09-08T20:19:22;23.00;99.90
26270;DHT22;15937;50.612;6.656;2023-09-08T20:23:24;23.00;36.70
26270;DHT22;15937;50.612;6.656;2023-09-08T20:27:26;23.10;26.10
26270;DHT22;15937;50.612;6.656;2023-09-08T20:31:28;22.90;99.90
26270;DHT22;15937;50.612;6.656;2023-09-08T20:35:35;22.70;1.00
26270;DHT22;15937;50.612;6.656;2023-09-08T20:39:37;22.30;99.90
26270;DHT22;15937;50.612;6.656;2023-09-08T20:43:39;22.40;99.90
26270;DHT22;15937;50.612;6.656;2023-09-08T20:47:41;22.50;99.90
26270;DHT22;15937;50.612;6.656;2023-09-08T20:51:43;22.60;99.90
26270;DHT22;15937;50.612;6.656;2023-09-08T20:55:45;22.10;99.90
26270;DHT22;15937;50.612;6.656;2023-09-08T20:59:47;22.20;1.00
26270;DHT22;15937;50.612;6.656;2023-09-08T21:03:48;22.20;99.90
26270;DHT22;15937;50.612;6.656;2023-09-08T21:07:50;22.20;99.90
26270;DHT22;15937;50.612;6.656;2023-09-08T21:11:52;22.20;99.90
26270;DHT22;15937;50.612;6.656;2023-09-08T21:15:54;22.10;1.00
26270;DHT22;15937;50.612;6.656;2023-09-08T21:19:56;22.10;99.90
26270;DHT22;15937;50.612;6.656;2023-09-08T21:23:59;22.20;1.00
26270;DHT22;15937;50.612;6.656;2023-09-08T21:28:01;22.10;99.90
26270;DHT22;15937;50.612;6.656;2023-09-08T21:32:03;22.10;99.90
26270;DHT22;15937;50.612;6.656;2023-09-08T21:36:05;22.00;99.90
26270;DHT22;15937;50.612;6.656;2023-09-08T21:40:08;22.00;99.90
26270;DHT22;15937;50.612;6.656;2023-09-08T21:44:09;21.90;99.90
26270;DHT22;15937;50.612;6.656;2023-09-08T21:48:11;21.90;99.90
26270;DHT22;15937;50.612;6.656;2023-09-08T21:52:13;21.90;99.90
26270;DHT22;15937;50.612;6.656;2023-09-08T21:56:28;21.70;99.90
26270;DHT22;15937;50.612;6.656;2023-09-08T22:00:31;21.80;99.90
26270;DHT22;15937;50.612;6.656;2023-09-08T22:04:33;21.70;99.90
26270;DHT22;15937;50.612;6.656;2023-09-08T22:08:34;21.70;99.90
26270;DHT22;15937;50.612;6.656;2023-09-08T22:12:37;21.60;99.90
26270;DHT22;15937;50.612;6.656;2023-09-08T22:16:38;21.70;99.90
26270;DHT22;15937;50.612;6.656;2023-09-08T22:20:40;21.60;99.90
26270;DHT22;15937;50.612;6.656;2023-09-08T22:24:42;21.40;99.90
26270;DHT22;15937;50.612;6.656;2023-09-08T22:28:47;21.40;99.90
26270;DHT22;15937;50.612;6.656;2023-09-08T22:32:49;21.40;99.90
26270;DHT22;15937;50.612;6.656;2023-09-08T22:36:51;21.20;99.90
26270;DHT22;15937;50.612;6.656;2023-09-08T22:40:53;21.20;99.90
26270;DHT22;15937;50.612;6.656;2023-09-08T22:44:55;21.30;99.90
26270;DHT22;15937;50.612;6.656;2023-09-08T22:48:56;21.30;99.90
26270;DHT22;15937;50.612;6.656;2023-09-08T22:52:58;21.30;99.90
26270;DHT22;15937;50.612;6.656;2023-09-08T22:57:00;21.30;99.90
26270;DHT22;15937;50.612;6.656;2023-09-08T23:01:02;21.30;99.90
26270;DHT22;15937;50.612;6.656;2023-09-08T23:05:04;21.50;99.90
26270;DHT22;15937;50.612;6.656;2023-09-08T23:09:06;21.40;99.90
26270;DHT22;15937;50.612;6.656;2023-09-08T23:13:08;21.30;99.90
26270;DHT22;15937;50.612;6.656;2023-09-08T23:17:10;21.20;99.90
26270;DHT22;15937;50.612;6.656;2023-09-08T23:21:11;21.20;99.90
26270;DHT22;15937;50.612;6.656;2023-09-08T23:25:13;21.10;99.90
26270;DHT22;15937;50.612;6.656;2023-09-08T23:29:15;21.10;99.90
26270;DHT22;15937;50.612;6.656;2023-09-08T23:33:17;21.10;99.90
26270;DHT22;15937;50.612;6.656;2023-09-08T23:37:19;21.00;99.90
26270;DHT22;15937;50.612;6.656;2023-09-08T23:41:20;21.10;99.90
26270;DHT22;15937;50.612;6.656;2023-09-08T23:45:22;21.00;99.90
26270;DHT22;15937;50.612;6.656;2023-09-08T23:49:24;21.00;99.90
26270;DHT22;15937;50.612;6.656;2023-09-08T23:53:26;20.80;99.90
26270;DHT22;15937;50.612;6.656;2023-09-08T23:57:28;20.90;99.90
